Time;durP1;ratioP1;P1;durP2;ratioP2;P2;SDS_P1;SDS_P2;PMS_P1;PMS_P2;Temp;Humidity;BMP_temperature;BMP_pressure;BME280_temperature;BME280_humidity;BME280_pressure;Samples;Min_cycle;Max_cycle;Signal;HPM_P1;HPM_P2
2023/04/05 00:02:02;;;;;;;4.07;2.72;;;;;;;;;;4960466;28;20046;-78
2023/04/05 00:04:33;;;;;;;4.72;2.72;;;;;;;;;;4965198;28;20066;-78
2023/04/05 00:07:01;;;;;;;2.42;2.22;;;;;;;;;;4942194;28;20049;-78
2023/04/05 00:09:28;;;;;;;3.20;2.90;;;;;;;;;;4953390;28;20055;-78
2023/04/05 00:11:56;;;;;;;6.65;2.85;;;;;;;;;;4961012;28;20055;-78
2023/04/05 00:14:23;;;;;;;2.50;2.30;;;;;;;;;;4962902;28;20136;-78
2023/04/05 00:16:50;;;;;;;4.32;2.85;;;;;;;;;;4960359;28;20054;-78
2023/04/05 00:19:18;;;;;;;2.92;2.63;;;;;;;;;;4958209;28;20061;-78
2023/04/05 00:21:46;;;;;;;3.78;2.50;;;;;;;;;;4968484;28;20307;-78
2023/04/05 00:24:14;;;;;;;3.88;2.70;;;;;;;;;;4968093;28;20505;-78
2023/04/05 00:26:43;;;;;;;3.22;2.55;;;;;;;;;;4963254;28;20059;-78
2023/04/05 00:29:10;;;;;;;2.85;2.50;;;;;;;;;;4970109;23;20378;-81
2023/04/05 00:31:37;;;;;;;2.67;2.42;;;;;;;;;;4951242;28;20134;-81
2023/04/05 00:34:07;;;;;;;2.38;2.17;;;;;;;;;;4968989;28;20066;-81
2023/04/05 00:36:35;;;;;;;3.70;2.45;;;;;;;;;;4966632;28;20074;-81
2023/04/05 00:39:03;;;;;;;4.20;2.72;;;;;;;;;;4965416;28;20062;-81
2023/04/05 00:41:30;;;;;;;5.35;4.95;;;;;;;;;;4973568;28;20126;-82
2023/04/05 00:43:58;;;;;;;4.55;2.22;;;;;;;;;;4968959;28;20051;-81
2023/04/05 00:46:26;;;;;;;3.25;2.38;;;;;;;;;;4967134;28;20047;-81
2023/04/05 00:48:55;;;;;;;3.03;2.45;;;;;;;;;;4949777;28;20070;-82
2023/04/05 00:51:23;;;;;;;2.38;2.17;;;;;;;;;;4965790;28;20490;-81
2023/04/05 00:53:51;;;;;;;4.70;2.80;;;;;;;;;;4948371;28;20460;-81
2023/04/05 00:56:20;;;;;;;4.22;3.10;;;;;;;;;;4956203;28;20155;-82
2023/04/05 00:58:50;;;;;;;3.20;2.78;;;;;;;;;;4966841;28;20043;-81
2023/04/05 01:01:21;;;;;;;3.58;2.83;;;;;;;;;;4967939;28;20378;-81
2023/04/05 01:03:52;;;;;;;2.80;2.50;;;;;;;;;;4950315;28;20423;-81
2023/04/05 01:06:39;;;;;;;45.22;26.95;;;;;;;;;;4964198;28;20042;-82
2023/04/05 01:09:07;;;;;;;3.17;2.67;;;;;;;;;;4952199;28;20039;-82
2023/04/05 01:11:37;;;;;;;5.82;2.67;;;;;;;;;;4966380;28;20133;-81
2023/04/05 01:14:05;;;;;;;4.05;2.70;;;;;;;;;;4970767;28;20050;-82
2023/04/05 01:16:32;;;;;;;3.80;2.65;;;;;;;;;;4953913;28;20054;-81
2023/04/05 01:19:00;;;;;;;4.28;2.90;;;;;;;;;;4951453;28;20051;-81
2023/04/05 01:21:28;;;;;;;3.28;2.25;;;;;;;;;;4950906;28;20049;-82
2023/04/05 01:24:14;;;;;;;2.22;2.00;;;;;;;;;;4950968;28;20122;-82
2023/04/05 01:26:48;;;;;;;3.05;2.75;;;;;;;;;;4953336;28;20054;-81
2023/04/05 01:29:39;;;;;;;3.92;2.63;;;;;;;;;;4955579;28;20101;-82
2023/04/05 01:32:30;;;;;;;10.88;3.33;;;;;;;;;;4938658;28;20133;-81
2023/04/05 01:35:16;;;;;;;6.13;2.92;;;;;;;;;;4950709;28;20463;-82
2023/04/05 01:37:48;;;;;;;2.72;2.50;;;;;;;;;;4949322;28;20141;-81
2023/04/05 01:40:16;;;;;;;3.03;2.67;;;;;;;;;;4962612;28;20516;-82
2023/04/05 01:42:47;;;;;;;2.97;2.42;;;;;;;;;;4958566;28;20082;-82
2023/04/05 01:45:14;;;;;;;2.67;2.45;;;;;;;;;;4958454;28;20057;-82
2023/04/05 01:47:42;;;;;;;2.85;2.45;;;;;;;;;;4922633;28;20535;-81
2023/04/05 01:50:09;;;;;;;3.70;2.92;;;;;;;;;;4954167;28;20058;-81
2023/04/05 01:52:37;;;;;;;3.10;2.70;;;;;;;;;;4969232;28;20058;-81
2023/04/05 01:55:05;;;;;;;4.00;2.50;;;;;;;;;;4968869;28;20047;-82
2023/04/05 01:57:32;;;;;;;4.78;2.72;;;;;;;;;;4961533;28;20278;-82
2023/04/05 02:00:00;;;;;;;4.32;2.42;;;;;;;;;;4934470;28;20053;-82
2023/04/05 02:02:28;;;;;;;7.22;2.70;;;;;;;;;;4956241;28;20083;-81
2023/04/05 02:04:55;;;;;;;5.05;2.97;;;;;;;;;;4965546;28;20054;-81
2023/04/05 02:07:24;;;;;;;3.10;2.67;;;;;;;;;;4952110;28;20074;-82
2023/04/05 02:09:52;;;;;;;3.00;2.70;;;;;;;;;;4957147;28;20050;-81
2023/04/05 02:12:19;;;;;;;2.42;2.22;;;;;;;;;;4971304;28;20082;-82
2023/04/05 02:14:46;;;;;;;2.83;2.40;;;;;;;;;;4950575;28;20098;-80
2023/04/05 02:17:16;;;;;;;3.55;2.30;;;;;;;;;;4968982;28;20047;-82
2023/04/05 02:19:45;;;;;;;3.25;2.28;;;;;;;;;;4965545;28;20051;-81
2023/04/05 02:22:13;;;;;;;9.32;2.58;;;;;;;;;;4947752;28;20405;-81
2023/04/05 02:24:41;;;;;;;6.45;3.35;;;;;;;;;;4941008;28;20047;-81
2023/04/05 02:27:08;;;;;;;4.47;2.60;;;;;;;;;;4952246;28;20046;-81
2023/04/05 02:29:36;;;;;;;4.60;2.97;;;;;;;;;;4954169;28;20090;-82
2023/04/05 02:32:03;;;;;;;6.20;3.42;;;;;;;;;;4952638;28;20097;-82
2023/04/05 02:34:32;;;;;;;6.38;3.42;;;;;;;;;;4965889;28;20050;-82
2023/04/05 02:37:00;;;;;;;4.68;3.17;;;;;;;;;;4953448;28;20125;-81
2023/04/05 02:39:28;;;;;;;5.45;3.15;;;;;;;;;;4968061;28;20043;-81
2023/04/05 02:41:56;;;;;;;7.90;3.67;;;;;;;;;;4970943;28;20545;-82
2023/04/05 02:44:23;;;;;;;10.35;4.22;;;;;;;;;;4953261;28;20062;-82
2023/04/05 02:46:53;;;;;;;5.88;3.53;;;;;;;;;;4953255;28;20070;-82
2023/04/05 02:49:26;;;;;;;12.13;4.50;;;;;;;;;;4951882;28;20047;-82
2023/04/05 02:51:56;;;;;;;16.00;5.15;;;;;;;;;;4954940;28;20078;-82
2023/04/05 02:54:23;;;;;;;12.57;5.30;;;;;;;;;;4960979;28;20493;-82
2023/04/05 02:56:56;;;;;;;12.60;5.43;;;;;;;;;;4963683;28;20085;-82
2023/04/05 02:59:27;;;;;;;9.25;4.68;;;;;;;;;;4971912;28;20039;-82
2023/04/05 03:01:56;;;;;;;7.55;4.50;;;;;;;;;;4959037;28;20531;-82
2023/04/05 03:04:26;;;;;;;6.30;3.83;;;;;;;;;;4965351;28;20487;-81
2023/04/05 03:07:01;;;;;;;6.45;3.90;;;;;;;;;;4959104;28;20057;-83
2023/04/05 03:09:37;;;;;;;9.48;4.20;;;;;;;;;;4955752;28;20058;-82
2023/04/05 03:12:07;;;;;;;5.47;3.72;;;;;;;;;;4961713;28;20054;-82
2023/04/05 03:14:39;;;;;;;8.43;4.15;;;;;;;;;;4970943;28;20057;-82
2023/04/05 03:17:09;;;;;;;11.35;3.50;;;;;;;;;;4948169;28;20158;-81
2023/04/05 03:19:41;;;;;;;5.47;3.70;;;;;;;;;;4944408;28;20046;-82
2023/04/05 03:22:22;;;;;;;7.05;3.75;;;;;;;;;;4953860;28;20580;-82
2023/04/05 03:24:51;;;;;;;5.97;3.60;;;;;;;;;;4946753;28;20146;-82
2023/04/05 03:27:20;;;;;;;7.38;3.40;;;;;;;;;;4950390;28;20054;-81
2023/04/05 03:30:01;;;;;;;9.23;3.77;;;;;;;;;;4956519;28;20536;-82
2023/04/05 03:32:31;;;;;;;4.13;2.63;;;;;;;;;;4955106;28;20393;-82
2023/04/05 03:35:06;;;;;;;3.97;2.60;;;;;;;;;;4957625;28;20072;-82
2023/04/05 03:37:34;;;;;;;8.55;3.50;;;;;;;;;;4957293;28;20047;-82
2023/04/05 03:40:06;;;;;;;5.60;2.90;;;;;;;;;;4960133;28;20053;-82
2023/04/05 03:42:34;;;;;;;3.40;2.33;;;;;;;;;;4958679;28;20113;-82
2023/04/05 03:45:02;;;;;;;3.35;2.67;;;;;;;;;;4969069;28;20073;-82
2023/04/05 03:47:29;;;;;;;4.22;3.63;;;;;;;;;;4957245;28;20504;-82
2023/04/05 03:50:01;;;;;;;2.75;2.30;;;;;;;;;;4951483;28;20101;-81
2023/04/05 03:52:30;;;;;;;3.30;2.63;;;;;;;;;;4968048;28;20066;-81
2023/04/05 03:55:00;;;;;;;2.92;2.63;;;;;;;;;;4956905;28;20564;-81
2023/04/05 03:57:30;;;;;;;6.72;3.15;;;;;;;;;;4951420;28;20540;-82
2023/04/05 04:00:13;;;;;;;4.95;2.80;;;;;;;;;;4946260;28;20425;-82
2023/04/05 04:02:44;;;;;;;3.30;2.03;;;;;;;;;;4967093;28;20043;-81
2023/04/05 04:05:16;;;;;;;2.60;2.40;;;;;;;;;;4952945;28;20308;-81
2023/04/05 04:07:48;;;;;;;4.60;2.60;;;;;;;;;;4952144;28;20137;-82
2023/04/05 04:10:17;;;;;;;5.65;2.80;;;;;;;;;;4953313;28;20066;-82
2023/04/05 04:12:48;;;;;;;6.00;3.60;;;;;;;;;;4949367;28;20051;-81
2023/04/05 04:15:17;;;;;;;3.28;2.70;;;;;;;;;;4960459;28;20170;-82
2023/04/05 04:18:07;;;;;;;4.75;2.92;;;;;;;;;;4966838;28;20054;-82
2023/04/05 04:21:05;;;;;;;3.78;2.92;;;;;;;;;;4956590;28;20051;-82
2023/04/05 04:23:50;;;;;;;13.75;12.60;;;;;;;;;;4960689;28;20122;-83
2023/04/05 04:26:53;;;;;;;3.33;3.03;;;;;;;;;;4958566;28;20521;-82
2023/04/05 04:29:32;;;;;;;5.32;4.82;;;;;;;;;;4966589;28;20505;-81
2023/04/05 04:32:25;;;;;;;2.78;2.38;;;;;;;;;;4960685;28;20047;-82
2023/04/05 04:35:14;;;;;;;6.50;3.75;;;;;;;;;;4961059;28;20513;-81
2023/04/05 04:37:57;;;;;;;7.78;4.13;;;;;;;;;;4947201;28;20046;-82
2023/04/05 04:40:49;;;;;;;4.20;3.42;;;;;;;;;;4951840;28;20147;-82
2023/04/05 04:43:26;;;;;;;5.07;3.17;;;;;;;;;;4952579;28;20108;-82
2023/04/05 04:46:17;;;;;;;4.13;2.92;;;;;;;;;;4967562;28;20063;-81
2023/04/05 04:48:56;;;;;;;5.95;2.90;;;;;;;;;;4946735;28;20074;-82
2023/04/05 04:51:34;;;;;;;3.67;3.28;;;;;;;;;;4956400;28;20183;-81
2023/04/05 04:54:01;;;;;;;4.88;3.30;;;;;;;;;;4975223;28;20038;-82
2023/04/05 04:56:29;;;;;;;4.35;3.65;;;;;;;;;;4970672;28;20065;-82
2023/04/05 04:58:58;;;;;;;4.00;3.38;;;;;;;;;;4955760;28;20052;-82
2023/04/05 05:01:25;;;;;;;4.18;3.53;;;;;;;;;;4962062;28;20054;-82
2023/04/05 05:03:53;;;;;;;3.90;2.80;;;;;;;;;;4974915;28;20078;-82
2023/04/05 05:06:30;;;;;;;5.03;3.50;;;;;;;;;;4953288;28;20054;-82
2023/04/05 05:08:57;;;;;;;4.35;3.60;;;;;;;;;;4967466;28;20141;-83
2023/04/05 05:11:27;;;;;;;5.30;4.00;;;;;;;;;;4945731;28;20343;-82
2023/04/05 05:13:55;;;;;;;6.38;3.90;;;;;;;;;;4944908;28;21331;-82
2023/04/05 05:16:25;;;;;;;7.35;4.13;;;;;;;;;;4942659;28;20062;-83
2023/04/05 05:18:53;;;;;;;9.77;8.85;;;;;;;;;;4957101;28;20043;-82
2023/04/05 05:21:23;;;;;;;5.95;3.30;;;;;;;;;;4956924;28;20066;-82
2023/04/05 05:23:55;;;;;;;5.65;3.97;;;;;;;;;;4951485;28;20055;-82
2023/04/05 05:26:22;;;;;;;4.90;4.15;;;;;;;;;;4967401;28;20042;-81
2023/04/05 05:28:50;;;;;;;7.88;5.25;;;;;;;;;;4963404;28;20129;-82
2023/04/05 05:31:18;;;;;;;5.82;4.53;;;;;;;;;;4951358;28;20137;-82
2023/04/05 05:33:48;;;;;;;7.60;5.32;;;;;;;;;;4961075;28;20046;-82
2023/04/05 05:36:18;;;;;;;6.07;4.88;;;;;;;;;;4957641;28;20039;-82
2023/04/05 05:38:46;;;;;;;6.35;4.65;;;;;;;;;;4961574;28;20047;-82
2023/04/05 05:41:14;;;;;;;9.00;6.18;;;;;;;;;;4964968;28;20065;-83
2023/04/05 05:43:42;;;;;;;8.68;6.22;;;;;;;;;;4967060;28;20043;-81
2023/04/05 05:46:10;;;;;;;9.38;5.40;;;;;;;;;;4970222;28;20133;-82
2023/04/05 05:48:37;;;;;;;6.32;4.57;;;;;;;;;;4964777;28;20164;-82
2023/04/05 05:51:08;;;;;;;11.13;4.95;;;;;;;;;;4969413;28;20478;-82
2023/04/05 05:53:36;;;;;;;5.65;4.20;;;;;;;;;;4964154;28;20054;-82
2023/04/05 05:56:04;;;;;;;28.95;26.48;;;;;;;;;;4948315;28;20425;-82
2023/04/05 05:58:32;;;;;;;6.38;4.65;;;;;;;;;;4962085;28;20043;-82
2023/04/05 06:01:02;;;;;;;5.30;3.72;;;;;;;;;;4958380;28;20105;-82
2023/04/05 06:03:30;;;;;;;11.52;9.10;;;;;;;;;;4985067;28;20047;-81
2023/04/05 06:05:58;;;;;;;5.47;3.75;;;;;;;;;;4983399;28;20082;-81
2023/04/05 06:08:26;;;;;;;5.65;3.83;;;;;;;;;;4970804;28;20085;-81
2023/04/05 06:10:54;;;;;;;4.85;3.30;;;;;;;;;;4958487;28;20051;-81
2023/04/05 06:13:21;;;;;;;6.40;3.90;;;;;;;;;;4957736;28;20053;-83
2023/04/05 06:15:49;;;;;;;4.63;3.70;;;;;;;;;;4957090;28;20138;-82
2023/04/05 06:18:16;;;;;;;4.28;3.25;;;;;;;;;;4946469;28;20054;-82
2023/04/05 06:20:44;;;;;;;6.82;3.42;;;;;;;;;;4964264;28;20071;-81
2023/04/05 06:23:11;;;;;;;5.63;3.55;;;;;;;;;;4962094;28;20091;-80
2023/04/05 06:25:39;;;;;;;7.43;3.80;;;;;;;;;;4962151;28;20394;-80
2023/04/05 06:28:07;;;;;;;5.43;4.30;;;;;;;;;;4944959;28;20053;-80
2023/04/05 06:30:34;;;;;;;5.80;3.58;;;;;;;;;;5048410;23;20076;-79
2023/04/05 06:33:02;;;;;;;5.40;3.33;;;;;;;;;;4959611;28;20117;-78
2023/04/05 06:35:30;;;;;;;7.63;4.18;;;;;;;;;;4958901;28;20588;-78
2023/04/05 06:37:57;;;;;;;3.85;3.03;;;;;;;;;;4960481;28;20387;-77
2023/04/05 06:40:25;;;;;;;5.85;4.20;;;;;;;;;;4958792;28;20513;-80
2023/04/05 06:42:52;;;;;;;4.00;3.55;;;;;;;;;;4945125;28;20043;-77
2023/04/05 06:45:23;;;;;;;4.93;4.22;;;;;;;;;;4959136;28;20050;-78
2023/04/05 06:47:51;;;;;;;15.23;11.70;;;;;;;;;;4951382;28;20093;-78
2023/04/05 06:50:18;;;;;;;10.02;4.20;;;;;;;;;;4959638;28;20043;-79
2023/04/05 06:52:46;;;;;;;6.22;4.03;;;;;;;;;;4937483;28;20579;-78
2023/04/05 06:55:13;;;;;;;5.55;3.95;;;;;;;;;;4959245;28;20046;-78
2023/04/05 06:57:40;;;;;;;15.02;13.43;;;;;;;;;;4958091;28;20425;-80
2023/04/05 07:00:12;;;;;;;5.55;4.20;;;;;;;;;;4957833;28;20126;-80
2023/04/05 07:02:40;;;;;;;5.32;3.83;;;;;;;;;;4954186;28;20293;-78
2023/04/05 07:05:07;;;;;;;5.50;3.70;;;;;;;;;;4949452;28;20039;-78
2023/04/05 07:07:39;;;;;;;5.95;2.88;;;;;;;;;;4956188;28;20050;-80
2023/04/05 07:10:07;;;;;;;5.03;2.78;;;;;;;;;;4965355;28;20054;-79
2023/04/05 07:12:34;;;;;;;3.30;2.78;;;;;;;;;;4960275;28;20055;-77
2023/04/05 07:15:02;;;;;;;8.25;7.45;;;;;;;;;;4957424;28;20065;-79
2023/04/05 07:17:32;;;;;;;4.07;3.63;;;;;;;;;;4957527;28;20047;-80
2023/04/05 07:20:05;;;;;;;63.75;57.20;;;;;;;;;;4957375;28;20050;-80
2023/04/05 07:22:43;;;;;;;2.85;2.50;;;;;;;;;;4942125;28;20204;-80
2023/04/05 07:25:14;;;;;;;12.40;11.52;;;;;;;;;;4954565;28;20058;-79
2023/04/05 07:27:46;;;;;;;238.48;220.23;;;;;;;;;;4952374;28;20055;-80
2023/04/05 07:30:15;;;;;;;36.00;33.78;;;;;;;;;;4952989;28;20697;-81
2023/04/05 07:32:45;;;;;;;16.23;14.88;;;;;;;;;;4939448;28;20050;-78
2023/04/05 07:35:16;;;;;;;27.50;25.35;;;;;;;;;;4958314;28;20049;-81
2023/04/05 07:37:43;;;;;;;16.85;15.48;;;;;;;;;;4952007;28;20054;-79
2023/04/05 07:40:11;;;;;;;2.90;2.58;;;;;;;;;;4958348;28;20047;-78
2023/04/05 07:42:38;;;;;;;17.10;16.00;;;;;;;;;;4964400;28;20130;-79
2023/04/05 07:45:06;;;;;;;33.70;31.20;;;;;;;;;;4963105;28;20061;-80
2023/04/05 07:47:35;;;;;;;3.53;3.33;;;;;;;;;;4954138;28;20070;-81
2023/04/05 07:50:02;;;;;;;67.63;63.08;;;;;;;;;;4954745;28;20082;-78
2023/04/05 07:52:30;;;;;;;41.78;38.92;;;;;;;;;;4943580;28;20133;-80
2023/04/05 07:54:58;;;;;;;104.45;97.43;;;;;;;;;;4963097;28;20074;-79
2023/04/05 07:57:26;;;;;;;12.93;11.85;;;;;;;;;;4963864;28;20051;-81
2023/04/05 07:59:54;;;;;;;34.08;31.52;;;;;;;;;;4961813;28;20049;-80
2023/04/05 08:02:22;;;;;;;68.47;63.00;;;;;;;;;;4959286;28;20489;-78
2023/04/05 08:04:49;;;;;;;125.25;116.38;;;;;;;;;;4960153;28;20043;-78
2023/04/05 08:07:17;;;;;;;53.90;50.63;;;;;;;;;;4960231;28;20047;-77
2023/04/05 08:09:44;;;;;;;43.72;40.88;;;;;;;;;;4958598;28;20134;-76
2023/04/05 08:12:12;;;;;;;63.40;59.40;;;;;;;;;;4961503;28;20081;-77
2023/04/05 08:14:40;;;;;;;69.78;65.07;;;;;;;;;;4957932;28;20148;-79
2023/04/05 08:17:07;;;;;;;4.45;3.88;;;;;;;;;;4956137;28;20193;-79
2023/04/05 08:19:34;;;;;;;15.68;14.57;;;;;;;;;;4964584;28;20049;-78
2023/04/05 08:22:02;;;;;;;7.20;6.80;;;;;;;;;;4960522;28;20188;-76
2023/04/05 08:24:29;;;;;;;100.15;93.55;;;;;;;;;;4965433;28;20520;-77
2023/04/05 08:26:57;;;;;;;35.10;32.78;;;;;;;;;;4964545;28;20058;-78
2023/04/05 08:29:24;;;;;;;20.73;19.35;;;;;;;;;;4959710;28;20057;-78
2023/04/05 08:31:52;;;;;;;55.10;51.25;;;;;;;;;;4959440;28;20074;-78
2023/04/05 08:34:19;;;;;;;55.85;52.25;;;;;;;;;;4957671;28;20054;-78
2023/04/05 08:36:47;;;;;;;31.27;29.08;;;;;;;;;;4948252;28;20067;-79
2023/04/05 08:39:15;;;;;;;84.57;78.60;;;;;;;;;;4947752;28;20042;-78
2023/04/05 08:41:49;;;;;;;61.25;57.55;;;;;;;;;;4966700;28;20048;-78
2023/04/05 08:44:18;;;;;;;42.70;39.88;;;;;;;;;;4957443;28;20050;-81
2023/04/05 08:46:45;;;;;;;133.95;125.75;;;;;;;;;;4959928;28;20042;-79
2023/04/05 08:49:13;;;;;;;21.10;19.83;;;;;;;;;;4966944;28;20050;-79
2023/04/05 08:51:40;;;;;;;181.18;168.40;;;;;;;;;;4962178;28;20054;-79
2023/04/05 08:54:08;;;;;;;59.70;56.25;;;;;;;;;;4966387;28;20078;-81
2023/04/05 08:56:36;;;;;;;54.63;51.47;;;;;;;;;;4964931;28;20505;-76
2023/04/05 08:59:07;;;;;;;50.85;47.78;;;;;;;;;;4965178;28;20141;-80
2023/04/05 09:01:41;;;;;;;203.50;191.35;;;;;;;;;;4963257;28;20039;-80
2023/04/05 09:04:11;;;;;;;18.77;17.65;;;;;;;;;;4958256;28;20066;-80
2023/04/05 09:06:40;;;;;;;174.85;160.85;;;;;;;;;;4966198;28;20535;-78
2023/04/05 09:09:07;;;;;;;244.80;226.90;;;;;;;;;;4958975;28;20105;-79
2023/04/05 09:11:35;;;;;;;230.10;214.85;;;;;;;;;;4956404;28;20082;-78
2023/04/05 09:14:03;;;;;;;135.05;127.32;;;;;;;;;;4952524;28;20042;-82
2023/04/05 09:16:38;;;;;;;78.57;73.93;;;;;;;;;;4958541;28;21762;-80
2023/04/05 09:19:06;;;;;;;79.93;75.03;;;;;;;;;;4961456;28;20111;-81
2023/04/05 09:21:52;;;;;;;73.57;69.30;;;;;;;;;;4957343;28;20047;-78
2023/04/05 09:24:29;;;;;;;125.40;116.93;;;;;;;;;;4957669;28;20137;-78
2023/04/05 09:27:05;;;;;;;110.85;104.50;;;;;;;;;;4959082;28;20080;-78
2023/04/05 09:29:32;;;;;;;132.85;124.75;;;;;;;;;;4959290;28;20057;-79
2023/04/05 09:32:02;;;;;;;126.70;118.60;;;;;;;;;;4936270;28;20499;-81
2023/04/05 09:34:35;;;;;;;263.50;242.70;;;;;;;;;;4958615;28;20088;-79
2023/04/05 09:37:12;;;;;;;65.43;61.47;;;;;;;;;;4957490;28;20057;-79
2023/04/05 09:39:39;;;;;;;165.23;154.77;;;;;;;;;;4960731;28;20046;-79
2023/04/05 09:42:16;;;;;;;130.52;121.40;;;;;;;;;;4961147;28;20125;-81
2023/04/05 09:45:01;;;;;;;164.43;154.30;;;;;;;;;;4956828;28;20046;-80
2023/04/05 09:47:33;;;;;;;206.55;193.85;;;;;;;;;;4951292;28;20054;-81
2023/04/05 09:50:17;;;;;;;190.98;179.55;;;;;;;;;;4960698;28;20047;-80
2023/04/05 09:52:45;;;;;;;116.25;109.38;;;;;;;;;;4957748;28;20047;-81
2023/04/05 09:55:24;;;;;;;152.10;142.65;;;;;;;;;;4941772;28;20102;-78
2023/04/05 09:57:51;;;;;;;304.38;279.98;;;;;;;;;;4956769;28;20050;-82
2023/04/05 10:00:20;;;;;;;365.33;329.13;;;;;;;;;;4953212;28;20055;-80
2023/04/05 10:02:52;;;;;;;158.13;144.77;;;;;;;;;;4955344;28;20742;-81
2023/04/05 10:05:22;;;;;;;58.88;55.50;;;;;;;;;;4950115;28;20577;-79
2023/04/05 10:07:51;;;;;;;160.65;149.98;;;;;;;;;;4948260;28;20181;-79
2023/04/05 10:10:18;;;;;;;92.53;86.90;;;;;;;;;;4955515;28;20049;-80
2023/04/05 10:12:46;;;;;;;362.88;334.27;;;;;;;;;;4955124;28;20287;-79
2023/04/05 10:15:14;;;;;;;374.42;349.20;;;;;;;;;;4935175;28;20039;-81
2023/04/05 10:17:50;;;;;;;152.00;142.57;;;;;;;;;;4950921;28;20051;-79
2023/04/05 10:20:19;;;;;;;117.20;109.97;;;;;;;;;;4955460;28;20046;-81
2023/04/05 10:22:56;;;;;;;142.73;133.43;;;;;;;;;;4956378;28;20241;-79
2023/04/05 10:25:43;;;;;;;37.10;34.80;;;;;;;;;;4949277;28;20053;-82
2023/04/05 10:28:17;;;;;;;147.90;138.85;;;;;;;;;;4955856;28;20047;-78
2023/04/05 10:30:46;;;;;;;203.95;191.65;;;;;;;;;;4945234;28;20051;-78
2023/04/05 10:33:21;;;;;;;214.45;201.95;;;;;;;;;;4945818;28;20051;-79
2023/04/05 10:35:48;;;;;;;102.78;96.57;;;;;;;;;;4953068;28;20052;-79
2023/04/05 10:38:16;;;;;;;201.40;189.38;;;;;;;;;;4956033;28;20051;-79
2023/04/05 10:40:47;;;;;;;176.95;166.15;;;;;;;;;;4956464;28;20436;-79
2023/04/05 10:43:17;;;;;;;332.65;312.10;;;;;;;;;;4951485;28;20113;-79
2023/04/05 10:45:48;;;;;;;128.35;120.38;;;;;;;;;;4934488;28;20639;-81
2023/04/05 10:48:29;;;;;;;252.10;235.93;;;;;;;;;;4930899;28;20055;-79
2023/04/05 10:50:57;;;;;;;242.40;227.00;;;;;;;;;;4950577;28;20051;-79
2023/04/05 10:53:26;;;;;;;236.73;221.90;;;;;;;;;;4944904;28;20055;-79
2023/04/05 10:55:55;;;;;;;309.42;288.35;;;;;;;;;;4956398;28;20039;-78
2023/04/05 10:58:23;;;;;;;108.57;101.85;;;;;;;;;;4957418;28;20245;-79
2023/04/05 11:00:50;;;;;;;119.00;111.68;;;;;;;;;;4949339;28;20051;-79
2023/04/05 11:03:36;;;;;;;103.20;96.75;;;;;;;;;;4953080;28;20062;-79
2023/04/05 11:06:18;;;;;;;143.65;134.55;;;;;;;;;;4950319;28;20051;-79
2023/04/05 11:08:52;;;;;;;74.60;70.20;;;;;;;;;;4951494;28;20086;-79
2023/04/05 11:11:21;;;;;;;97.60;91.65;;;;;;;;;;4938958;28;20067;-78
2023/04/05 11:13:58;;;;;;;142.13;132.38;;;;;;;;;;4956116;28;20058;-78
2023/04/05 11:16:37;;;;;;;345.27;323.35;;;;;;;;;;4965550;28;20433;-77
2023/04/05 11:19:06;;;;;;;87.75;82.60;;;;;;;;;;4961576;28;20185;-78
2023/04/05 11:21:34;;;;;;;82.95;78.05;;;;;;;;;;4945507;28;20449;-79
2023/04/05 11:24:06;;;;;;;144.73;136.35;;;;;;;;;;4956658;28;20229;-78
2023/04/05 11:26:53;;;;;;;158.85;149.45;;;;;;;;;;4954611;28;20058;-78
2023/04/05 11:29:40;;;;;;;61.45;57.60;;;;;;;;;;4967238;28;20060;-79
2023/04/05 11:32:11;;;;;;;94.00;87.93;;;;;;;;;;4964343;28;20122;-79
2023/04/05 11:34:41;;;;;;;102.95;96.13;;;;;;;;;;4946837;28;20113;-79
2023/04/05 11:37:09;;;;;;;87.50;82.18;;;;;;;;;;4946309;28;20062;-79
2023/04/05 11:39:38;;;;;;;172.75;161.38;;;;;;;;;;4958625;28;20137;-79
2023/04/05 11:42:17;;;;;;;82.10;77.15;;;;;;;;;;4942524;28;20042;-79
2023/04/05 11:44:45;;;;;;;298.00;280.25;;;;;;;;;;4961384;28;20046;-78
2023/04/05 11:47:13;;;;;;;217.00;203.65;;;;;;;;;;4963215;28;20057;-79
2023/04/05 11:49:41;;;;;;;187.32;172.75;;;;;;;;;;4956266;28;20047;-80
2023/04/05 11:52:10;;;;;;;462.10;420.45;;;;;;;;;;4953133;28;20047;-79
2023/04/05 11:54:44;;;;;;;136.95;126.22;;;;;;;;;;4941041;28;20135;-78
2023/04/05 11:57:14;;;;;;;66.63;62.25;;;;;;;;;;4960731;28;20051;-79
2023/04/05 11:59:42;;;;;;;56.83;53.45;;;;;;;;;;4952205;28;20106;-78
2023/04/05 12:02:10;;;;;;;64.90;61.00;;;;;;;;;;4956657;28;20047;-78
2023/04/05 12:04:37;;;;;;;90.00;84.65;;;;;;;;;;4956064;28;20129;-77
2023/04/05 12:07:12;;;;;;;260.88;243.73;;;;;;;;;;4956303;28;20827;-79
2023/04/05 12:09:58;;;;;;;53.80;50.45;;;;;;;;;;4965744;28;20050;-78
2023/04/05 12:12:26;;;;;;;180.65;169.18;;;;;;;;;;4964687;28;20070;-78
2023/04/05 12:14:59;;;;;;;173.27;162.77;;;;;;;;;;4963297;28;20047;-78
2023/04/05 12:17:45;;;;;;;166.68;156.35;;;;;;;;;;4959535;28;20153;-78
2023/04/05 12:20:14;;;;;;;23.60;22.13;;;;;;;;;;4947749;28;20051;-78
2023/04/05 12:22:43;;;;;;;29.90;27.98;;;;;;;;;;4950122;28;20126;-77
2023/04/05 12:25:12;;;;;;;80.13;75.30;;;;;;;;;;4947186;28;20051;-78
2023/04/05 12:27:40;;;;;;;171.23;160.15;;;;;;;;;;4954926;28;20053;-77
2023/04/05 12:30:27;;;;;;;76.30;71.32;;;;;;;;;;4947518;28;20310;-78
2023/04/05 12:32:55;;;;;;;289.25;267.40;;;;;;;;;;4952714;28;20061;-78
2023/04/05 12:35:31;;;;;;;233.70;217.60;;;;;;;;;;4954036;28;20131;-77
2023/04/05 12:37:59;;;;;;;63.75;59.92;;;;;;;;;;4953192;28;20139;-78
2023/04/05 12:40:29;;;;;;;375.85;344.38;;;;;;;;;;4957124;28;20050;-77
2023/04/05 12:43:03;;;;;;;195.18;180.30;;;;;;;;;;4952025;28;20046;-79
2023/04/05 12:45:38;;;;;;;49.95;46.83;;;;;;;;;;4958294;28;20125;-78
2023/04/05 12:48:12;;;;;;;38.63;36.15;;;;;;;;;;4965576;28;20065;-78
2023/04/05 12:50:43;;;;;;;92.40;86.13;;;;;;;;;;4952901;28;20102;-79
2023/04/05 12:53:19;;;;;;;17.58;16.27;;;;;;;;;;4958979;28;20069;-78
2023/04/05 12:55:50;;;;;;;212.38;198.85;;;;;;;;;;4954521;28;20046;-78
2023/04/05 12:58:19;;;;;;;233.13;219.40;;;;;;;;;;4955157;28;20050;-78
2023/04/05 13:00:47;;;;;;;186.65;176.05;;;;;;;;;;4953790;28;20062;-78
2023/04/05 13:03:19;;;;;;;50.45;47.35;;;;;;;;;;4950349;28;20786;-76
2023/04/05 13:05:48;;;;;;;43.45;40.70;;;;;;;;;;4947202;28;20117;-78
2023/04/05 13:08:17;;;;;;;51.78;48.83;;;;;;;;;;4942783;28;20456;-78
2023/04/05 13:10:46;;;;;;;42.95;40.47;;;;;;;;;;4953391;28;20048;-78
2023/04/05 13:13:15;;;;;;;27.98;26.33;;;;;;;;;;4961768;28;20054;-79
2023/04/05 13:15:42;;;;;;;54.75;51.38;;;;;;;;;;4955424;28;20065;-78
2023/04/05 13:18:13;;;;;;;19.65;18.40;;;;;;;;;;4950588;28;20642;-78
2023/04/05 13:20:44;;;;;;;35.55;33.28;;;;;;;;;;4951607;28;20176;-79
2023/04/05 13:23:12;;;;;;;95.20;88.28;;;;;;;;;;4954994;28;20051;-77
2023/04/05 13:25:40;;;;;;;128.65;120.72;;;;;;;;;;4959346;28;20054;-78
2023/04/05 13:28:08;;;;;;;33.97;31.58;;;;;;;;;;4945726;28;20061;-79
2023/04/05 13:30:36;;;;;;;31.95;29.90;;;;;;;;;;4960269;28;20057;-78
2023/04/05 13:33:04;;;;;;;11.10;10.48;;;;;;;;;;4948444;28;20589;-78
2023/04/05 13:35:32;;;;;;;80.93;75.60;;;;;;;;;;4950694;28;20571;-78
2023/04/05 13:38:00;;;;;;;116.43;108.68;;;;;;;;;;4960861;28;20053;-77
2023/04/05 13:40:31;;;;;;;294.23;276.20;;;;;;;;;;4959839;28;20487;-78
2023/04/05 13:42:59;;;;;;;15.82;14.77;;;;;;;;;;4959633;28;20066;-78
2023/04/05 13:45:27;;;;;;;111.82;104.78;;;;;;;;;;4953620;28;20527;-77
2023/04/05 13:47:55;;;;;;;8.52;8.02;;;;;;;;;;4956546;28;20058;-78
2023/04/05 13:50:22;;;;;;;86.07;80.90;;;;;;;;;;4959610;28;20162;-78
2023/04/05 13:52:50;;;;;;;36.45;34.25;;;;;;;;;;4957756;28;20054;-78
2023/04/05 13:55:18;;;;;;;97.40;90.88;;;;;;;;;;4948971;28;20433;-78
2023/04/05 13:57:45;;;;;;;61.55;57.85;;;;;;;;;;4956945;28;20043;-78
2023/04/05 14:00:13;;;;;;;260.05;242.75;;;;;;;;;;4954295;28;20429;-78
2023/04/05 14:02:41;;;;;;;99.93;93.85;;;;;;;;;;4959413;28;20117;-80
2023/04/05 14:05:09;;;;;;;88.15;82.40;;;;;;;;;;4954940;28;20505;-78
2023/04/05 14:07:37;;;;;;;87.70;82.18;;;;;;;;;;4953933;28;20050;-79
2023/04/05 14:10:05;;;;;;;33.63;31.58;;;;;;;;;;4954563;28;20051;-79
2023/04/05 14:12:33;;;;;;;36.10;33.85;;;;;;;;;;4954678;28;20049;-79
2023/04/05 14:15:01;;;;;;;49.63;46.63;;;;;;;;;;4955308;28;20583;-78
2023/04/05 14:17:28;;;;;;;385.75;354.77;;;;;;;;;;4956630;28;20046;-79
2023/04/05 14:19:56;;;;;;;46.40;43.47;;;;;;;;;;4960711;28;20047;-79
2023/04/05 14:22:23;;;;;;;141.35;131.88;;;;;;;;;;4954336;28;20078;-79
2023/04/05 14:24:51;;;;;;;70.85;66.45;;;;;;;;;;4953199;28;20077;-78
2023/04/05 14:27:25;;;;;;;184.63;172.52;;;;;;;;;;4951355;28;20457;-79
2023/04/05 14:29:55;;;;;;;452.35;417.55;;;;;;;;;;4954797;28;20047;-79
2023/04/05 14:32:24;;;;;;;119.43;111.88;;;;;;;;;;4958731;28;20046;-79
2023/04/05 14:34:51;;;;;;;61.53;57.55;;;;;;;;;;4959110;28;20713;-79
2023/04/05 14:37:19;;;;;;;45.45;42.67;;;;;;;;;;4955019;28;20154;-79
2023/04/05 14:39:47;;;;;;;50.10;47.00;;;;;;;;;;4955187;28;20054;-79
2023/04/05 14:42:14;;;;;;;36.10;33.95;;;;;;;;;;4955589;28;20505;-79
2023/04/05 14:44:42;;;;;;;48.88;45.97;;;;;;;;;;4955181;28;20078;-79